»·PEaware :: BISON14 KFMN-KABQ

BISON14 :: KFMN-KABQ

FLIGHT INFORMATION

Flight Status: Arrived
Operator: Unknown
More flights by this operator :: More flights under this callsign
Pilot: Jordan C. (21690)
Aircraft: BEECH AIRCRAFT T-6A TEXAN
(TEX2)
More flights by this aircraft type
Origin: KFMN Four Corners Regl
United States
Destination: KABQ Albuquerque Intl Sunport
United States
More flights between these airports :: More routes between these airports
Route: RSK V187 ABQ
File this flight plan on PilotEdge
Remarks:
Altitude:
(Current/Filed)
13,000ft
Speed:
(Current/Filed)
300kts
Departed: 11-Jun-20 10:21 AM
Arrived: 11-Jun-20 10:46 AM
Distance/Time
Traveled:
129nm/0:25
Distance/Time
To Go:
Arrived

Flight Plot

Page will automatically refresh every two minutes.

Flight plan parsing failed; only flown route is shown


Map Options




Map Legend


Flown Route
Filed Route
Departure Airport
Arrival Airport
Navaid (VOR, NDB)
Fix

Horizontal Profiles

Position Reports

Time Latitude Longitude Heading Altitude Ground
Speed
11-Jun-20 10:09 36.739945 -108.228821 84 5507ft 0kts
11-Jun-20 10:10 36.739945 -108.228821 84 5507ft 0kts
11-Jun-20 10:11 36.739945 -108.228821 84 5507ft 0kts
11-Jun-20 10:12 36.739945 -108.228821 84 5507ft 0kts
11-Jun-20 10:13 36.739945 -108.228821 84 5507ft 0kts
11-Jun-20 10:14 36.739945 -108.228821 84 5507ft 0kts
11-Jun-20 10:15 36.740072 -108.228021 74 5507ft 5kts
11-Jun-20 10:16 36.740571 -108.229166 266 5507ft 10kts
11-Jun-20 10:17 36.738122 -108.237353 243 5507ft 34kts
11-Jun-20 10:18 36.736866 -108.240631 245 5507ft 0kts
11-Jun-20 10:19 36.736842 -108.240903 284 5507ft 11kts
11-Jun-20 10:20 36.747736 -108.214633 61 6196ft 172kts
11-Jun-20 10:21 36.771145 -108.159291 60 9473ft 188kts
11-Jun-20 10:22 36.754385 -108.102707 149 12182ft 212kts
11-Jun-20 10:23 36.698940 -108.058257 148 13065ft 275kts
11-Jun-20 10:24 36.631455 -108.006026 144 13006ft 292kts
11-Jun-20 10:25 36.562503 -107.952816 146 12991ft 294kts
11-Jun-20 10:26 36.493017 -107.900119 145 13057ft 294kts
11-Jun-20 10:27 36.424668 -107.843707 145 12931ft 296kts
11-Jun-20 10:28 36.355451 -107.790133 151 12974ft 295kts
11-Jun-20 10:29 36.283811 -107.742019 152 13154ft 290kts
11-Jun-20 10:30 36.199364 -107.685309 143 13063ft 396kts
11-Jun-20 10:31 36.103109 -107.607537 141 13044ft 421kts
11-Jun-20 10:32 36.005096 -107.527000 142 12980ft 426kts
11-Jun-20 10:33 35.905566 -107.447884 144 13025ft 426kts
11-Jun-20 10:34 35.802599 -107.374655 150 12881ft 427kts
11-Jun-20 10:35 35.699765 -107.304414 149 13071ft 422kts
11-Jun-20 10:36 35.597740 -107.232915 148 13067ft 424kts
11-Jun-20 10:37 35.496511 -107.158324 143 12986ft 424kts
11-Jun-20 10:38 35.396584 -107.081194 144 12924ft 427kts
11-Jun-20 10:39 35.295980 -107.007059 143 12857ft 431kts
11-Jun-20 10:40 35.185655 -106.926893 145 9338ft 470kts
11-Jun-20 10:41 35.075267 -106.849130 152 7638ft 408kts
11-Jun-20 10:42 35.044144 -106.763614 90 7194ft 220kts
11-Jun-20 10:43 35.042805 -106.693122 92 6593ft 204kts
11-Jun-20 10:44 35.044192 -106.631344 87 5628ft 134kts
11-Jun-20 10:45 35.044256 -106.604996 90 5318ft 28kts
11-Jun-20 10:46 35.045121 -106.602664 319 5319ft 0kts
11-Jun-20 10:47 35.045417 -106.603003 314 5319ft 0kts
11-Jun-20 10:48 35.046666 -106.599349 3 5320ft 20kts
11-Jun-20 10:49 35.047738 -106.602589 181 5319ft 0kts
11-Jun-20 10:50 35.047738 -106.602589 181 5319ft 0kts
11-Jun-20 10:51 35.047738 -106.602589 181 5319ft 0kts
11-Jun-20 10:52 35.047738 -106.602589 181 5319ft 0kts
11-Jun-20 10:53 35.047738 -106.602589 181 5319ft 0kts
11-Jun-20 10:54 35.047738 -106.602589 181 5319ft 0kts
11-Jun-20 10:55 35.047738 -106.602589 181 5319ft 0kts
11-Jun-20 10:56 35.047738 -106.602589 181 5319ft 0kts
11-Jun-20 10:57 35.047738 -106.602589 181 5319ft 0kts
11-Jun-20 10:58 35.047738 -106.602589 181 5319ft 0kts
11-Jun-20 10:59 35.047738 -106.602589 181 5319ft 0kts

Navigation Log

Ident Type
Flight plan parsing failed, navigation log unavailable